Aventura, Florida
Current Conditions -  °F | °C
As of 6:38 AM on Friday 24 Oct 2014 (Local Time) from KHWO Reporting Station
Light Rain Light Rain  
Wind Chill: 76°   Ceiling: 2600
Heat Index: 76°   Visibility: 10mi
Dew Point: 70°   Wind: 13mph
Humidity: 82%   Direction: 70°ENE
Pressure: 29.85"   Gusts: NA
Location:  25.9536°N, 80.1568°W
Report Text: KHWO 241038Z AUTO 07011KT 10SM -RA BKN026 OVC041 24/21 A2985 RMK AO2 RAB0959 P0005 T02440211
Loading
Personal Weather Stations






























Interactive Weather Map
Tropical Storm Tracking
New forecast layout! Learn more

10-Day Weather Forecast

Advertisements
Track Severe Weather on mobile